Time,TemperatureF,DewpointF,PressureIn,WindDirection,WindDirectionDegrees,WindSpeedMPH,WindSpeedGustMPH,Humidity,HourlyPrecipIn,Conditions,Clouds,dailyrainin,SolarRadiationWatts/m^2,SoftwareType,DateUTC
2013-01-09 00:02:00,44.0,10.0,-100.00,NNE,29,12.0,20.0,24,0.00,,,0.00,0.000000,,2013-01-09 07:02:00,
2013-01-09 00:12:00,44.0,10.0,-100.00,NNE,29,12.0,20.0,24,0.00,,,0.00,0.000000,,2013-01-09 07:12:00,
2013-01-09 00:22:00,44.0,10.0,-100.00,NNE,29,12.0,20.0,24,0.00,,,0.00,0.000000,,2013-01-09 07:22:00,
2013-01-09 00:32:00,44.0,10.0,-100.00,NNE,29,12.0,20.0,24,0.00,,,0.00,0.000000,,2013-01-09 07:32:00,
2013-01-09 00:52:00,43.0,10.0,-100.00,NNE,23,15.0,21.0,25,0.00,,,0.00,0.000000,,2013-01-09 07:52:00,
2013-01-09 01:02:00,43.0,10.0,-100.00,NNE,23,15.0,21.0,25,0.00,,,0.00,0.000000,,2013-01-09 08:02:00,
2013-01-09 01:12:00,43.0,10.0,-100.00,NNE,23,15.0,21.0,25,0.00,,,0.00,0.000000,,2013-01-09 08:12:00,
2013-01-09 01:22:00,43.0,10.0,-100.00,NNE,23,15.0,21.0,25,0.00,,,0.00,0.000000,,2013-01-09 08:22:00,
2013-01-09 01:32:00,43.0,10.0,-100.00,NNE,23,15.0,21.0,25,0.00,,,0.00,0.000000,,2013-01-09 08:32:00,
2013-01-09 01:53:00,40.0,10.0,-100.00,NNE,14,17.0,24.0,29,0.00,,,0.00,0.000000,,2013-01-09 08:53:00,
2013-01-09 02:02:00,40.0,10.0,-100.00,NNE,14,17.0,24.0,29,0.00,,,0.00,0.000000,,2013-01-09 09:02:00,
2013-01-09 02:12:00,40.0,10.0,-100.00,NNE,14,17.0,24.0,29,0.00,,,0.00,0.000000,,2013-01-09 09:12:00,
2013-01-09 02:22:00,40.0,10.0,-100.00,NNE,14,17.0,24.0,29,0.00,,,0.00,0.000000,,2013-01-09 09:22:00,
2013-01-09 02:32:00,40.0,10.0,-100.00,NNE,14,17.0,24.0,29,0.00,,,0.00,0.000000,,2013-01-09 09:32:00,
2013-01-09 02:53:00,41.0,8.0,-100.00,NE,45,11.0,20.0,25,0.00,,,0.00,0.000000,,2013-01-09 09:53:00,
2013-01-09 03:02:00,41.0,8.0,-100.00,NE,45,11.0,20.0,25,0.00,,,0.00,0.000000,,2013-01-09 10:02:00,
2013-01-09 03:11:00,41.0,8.0,-100.00,NE,45,11.0,20.0,25,0.00,,,0.00,0.000000,,2013-01-09 10:11:00,
2013-01-09 03:22:00,41.0,8.0,-100.00,NE,45,11.0,20.0,25,0.00,,,0.00,0.000000,,2013-01-09 10:22:00,
2013-01-09 03:32:00,41.0,8.0,-100.00,NE,45,11.0,20.0,25,0.00,,,0.00,0.000000,,2013-01-09 10:32:00,
2013-01-09 03:52:00,41.0,7.0,-100.00,NE,56,12.0,18.0,24,0.00,,,0.00,0.000000,,2013-01-09 10:52:00,
2013-01-09 04:02:00,41.0,7.0,-100.00,NE,56,12.0,18.0,24,0.00,,,0.00,0.000000,,2013-01-09 11:02:00,
2013-01-09 04:12:00,41.0,7.0,-100.00,NE,56,12.0,18.0,24,0.00,,,0.00,0.000000,,2013-01-09 11:12:00,
2013-01-09 04:22:00,41.0,7.0,-100.00,NE,56,12.0,18.0,24,0.00,,,0.00,0.000000,,2013-01-09 11:22:00,
2013-01-09 04:32:00,41.0,7.0,-100.00,NE,56,12.0,18.0,24,0.00,,,0.00,0.000000,,2013-01-09 11:32:00,
2013-01-09 04:53:00,41.0,6.0,-100.00,ENE,59,17.0,26.0,23,0.00,,,0.00,0.000000,,2013-01-09 11:53:00,
2013-01-09 05:03:00,41.0,6.0,-100.00,ENE,59,17.0,26.0,23,0.00,,,0.00,0.000000,,2013-01-09 12:03:00,
2013-01-09 05:12:00,41.0,6.0,-100.00,ENE,59,17.0,26.0,23,0.00,,,0.00,0.000000,,2013-01-09 12:12:00,
2013-01-09 05:22:00,41.0,6.0,-100.00,ENE,59,17.0,26.0,23,0.00,,,0.00,0.000000,,2013-01-09 12:22:00,
2013-01-09 05:32:00,41.0,6.0,-100.00,ENE,59,17.0,26.0,23,0.00,,,0.00,0.000000,,2013-01-09 12:32:00,
2013-01-09 06:02:00,41.0,6.0,-100.00,NE,55,18.0,28.0,23,0.00,,,0.00,0.000000,,2013-01-09 13:02:00,
2013-01-09 06:12:00,41.0,6.0,-100.00,NE,55,18.0,28.0,23,0.00,,,0.00,0.000000,,2013-01-09 13:12:00,
2013-01-09 06:22:00,41.0,6.0,-100.00,NE,55,18.0,28.0,23,0.00,,,0.00,0.000000,,2013-01-09 13:22:00,
2013-01-09 06:32:00,41.0,6.0,-100.00,NE,55,18.0,28.0,23,0.00,,,0.00,0.000000,,2013-01-09 13:32:00,
2013-01-09 07:02:00,39.0,7.0,-100.00,NE,56,22.0,35.0,26,0.00,,,0.00,0.000000,,2013-01-09 14:02:00,
2013-01-09 07:12:00,39.0,7.0,-100.00,NE,56,22.0,35.0,26,0.00,,,0.00,0.000000,,2013-01-09 14:12:00,
2013-01-09 07:22:00,39.0,7.0,-100.00,NE,56,22.0,35.0,26,0.00,,,0.00,0.000000,,2013-01-09 14:22:00,
2013-01-09 07:32:00,39.0,7.0,-100.00,NE,56,22.0,35.0,26,0.00,,,0.00,0.000000,,2013-01-09 14:32:00,
2013-01-09 07:53:00,39.0,7.0,-100.00,ENE,58,21.0,32.0,26,0.00,,,0.00,3.000000,,2013-01-09 14:53:00,
2013-01-09 08:03:00,39.0,7.0,-100.00,ENE,58,21.0,32.0,26,0.00,,,0.00,3.000000,,2013-01-09 15:03:00,
2013-01-09 08:12:00,39.0,7.0,-100.00,ENE,58,21.0,32.0,26,0.00,,,0.00,3.000000,,2013-01-09 15:12:00,
2013-01-09 08:22:00,39.0,7.0,-100.00,ENE,58,21.0,32.0,26,0.00,,,0.00,3.000000,,2013-01-09 15:22:00,
2013-01-09 08:33:00,39.0,7.0,-100.00,ENE,58,21.0,32.0,26,0.00,,,0.00,3.000000,,2013-01-09 15:33:00,
2013-01-09 08:53:00,42.0,6.0,-100.00,ENE,65,21.0,30.0,22,0.00,,,0.00,149.000000,,2013-01-09 15:53:00,
2013-01-09 09:03:00,42.0,6.0,-100.00,ENE,65,21.0,30.0,22,0.00,,,0.00,149.000000,,2013-01-09 16:03:00,
2013-01-09 09:12:00,42.0,6.0,-100.00,ENE,65,21.0,30.0,22,0.00,,,0.00,149.000000,,2013-01-09 16:12:00,
2013-01-09 09:22:00,42.0,6.0,-100.00,ENE,65,21.0,30.0,22,0.00,,,0.00,149.000000,,2013-01-09 16:22:00,
2013-01-09 09:33:00,42.0,6.0,-100.00,ENE,65,21.0,30.0,22,0.00,,,0.00,149.000000,,2013-01-09 16:33:00,
2013-01-09 10:02:00,44.0,3.0,-100.00,ENE,64,20.0,33.0,18,0.00,,,0.00,407.000000,,2013-01-09 17:02:00,
2013-01-09 10:12:00,44.0,3.0,-100.00,ENE,64,20.0,33.0,18,0.00,,,0.00,407.000000,,2013-01-09 17:12:00,
2013-01-09 10:22:00,44.0,3.0,-100.00,ENE,64,20.0,33.0,18,0.00,,,0.00,407.000000,,2013-01-09 17:22:00,
2013-01-09 10:32:00,44.0,3.0,-100.00,ENE,64,20.0,33.0,18,0.00,,,0.00,407.000000,,2013-01-09 17:32:00,
2013-01-09 11:53:00,45.0,4.0,-100.00,ENE,71,14.0,25.0,18,-99.99,,,0.00,656.000000,,2013-01-09 18:53:00,
2013-01-09 12:02:00,45.0,4.0,-100.00,ENE,71,14.0,25.0,18,-99.99,,,0.00,656.000000,,2013-01-09 19:02:00,
2013-01-09 12:12:00,45.0,4.0,-100.00,ENE,71,14.0,25.0,18,-99.99,,,0.00,656.000000,,2013-01-09 19:12:00,
2013-01-09 12:22:00,45.0,4.0,-100.00,ENE,71,14.0,25.0,18,-99.99,,,0.00,656.000000,,2013-01-09 19:22:00,
2013-01-09 12:32:00,45.0,4.0,-100.00,ENE,71,14.0,25.0,18,-99.99,,,0.00,656.000000,,2013-01-09 19:32:00,
2013-01-09 13:02:00,47.0,6.0,-100.00,ENE,69,12.0,23.0,18,0.00,,,0.00,863.000000,,2013-01-09 20:02:00,
2013-01-09 13:12:00,47.0,6.0,-100.00,ENE,69,12.0,23.0,18,0.00,,,0.00,863.000000,,2013-01-09 20:12:00,
2013-01-09 13:22:00,47.0,6.0,-100.00,ENE,69,12.0,23.0,18,0.00,,,0.00,863.000000,,2013-01-09 20:22:00,
2013-01-09 13:32:00,47.0,6.0,-100.00,ENE,69,12.0,23.0,18,0.00,,,0.00,863.000000,,2013-01-09 20:32:00,
2013-01-09 13:53:00,51.0,4.0,-100.00,ENE,71,7.0,17.0,14,0.00,,,0.00,859.000000,,2013-01-09 20:53:00,
2013-01-09 14:03:00,51.0,4.0,-100.00,ENE,71,7.0,17.0,14,0.00,,,0.00,859.000000,,2013-01-09 21:03:00,
2013-01-09 14:12:00,51.0,4.0,-100.00,ENE,71,7.0,17.0,14,0.00,,,0.00,859.000000,,2013-01-09 21:12:00,
2013-01-09 14:22:00,51.0,4.0,-100.00,ENE,71,7.0,17.0,14,0.00,,,0.00,859.000000,,2013-01-09 21:22:00,
2013-01-09 14:32:00,51.0,4.0,-100.00,ENE,71,7.0,17.0,14,0.00,,,0.00,859.000000,,2013-01-09 21:32:00,
2013-01-09 14:53:00,53.0,0.0,-100.00,East,80,4.0,14.0,11,0.00,,,0.00,742.000000,,2013-01-09 21:53:00,
2013-01-09 15:03:00,53.0,0.0,-100.00,East,80,4.0,14.0,11,0.00,,,0.00,742.000000,,2013-01-09 22:03:00,
2013-01-09 15:12:00,53.0,0.0,-100.00,East,80,4.0,14.0,11,0.00,,,0.00,742.000000,,2013-01-09 22:12:00,
2013-01-09 15:22:00,53.0,0.0,-100.00,East,80,4.0,14.0,11,0.00,,,0.00,742.000000,,2013-01-09 22:22:00,
2013-01-09 15:32:00,53.0,0.0,-100.00,East,80,4.0,14.0,11,0.00,,,0.00,742.000000,,2013-01-09 22:32:00,
2013-01-09 16:02:00,50.0,3.0,-100.00,ENE,63,7.0,10.0,14,0.00,,,0.00,570.000000,,2013-01-09 23:02:00,
2013-01-09 16:12:00,50.0,3.0,-100.00,ENE,63,7.0,10.0,14,0.00,,,0.00,570.000000,,2013-01-09 23:12:00,
2013-01-09 16:22:00,50.0,3.0,-100.00,ENE,63,7.0,10.0,14,0.00,,,0.00,570.000000,,2013-01-09 23:22:00,
2013-01-09 16:32:00,50.0,3.0,-100.00,ENE,63,7.0,10.0,14,0.00,,,0.00,570.000000,,2013-01-09 23:32:00,
2013-01-09 16:53:00,50.0,3.0,-100.00,SSW,206,2.0,9.0,14,0.00,,,0.00,290.000000,,2013-01-09 23:53:00,
2013-01-09 17:03:00,50.0,3.0,-100.00,SSW,206,2.0,9.0,14,0.00,,,0.00,290.000000,,2013-01-10 00:03:00,
2013-01-09 17:12:00,50.0,3.0,-100.00,SSW,206,2.0,9.0,14,0.00,,,0.00,290.000000,,2013-01-10 00:12:00,
2013-01-09 17:22:00,50.0,3.0,-100.00,SSW,206,2.0,9.0,14,0.00,,,0.00,290.000000,,2013-01-10 00:22:00,
2013-01-09 17:32:00,50.0,3.0,-100.00,SSW,206,2.0,9.0,14,0.00,,,0.00,290.000000,,2013-01-10 00:32:00,
2013-01-09 18:02:00,43.0,5.0,-100.00,West,271,2.0,4.0,20,0.00,,,0.00,68.000000,,2013-01-10 01:02:00,
2013-01-09 18:12:00,43.0,5.0,-100.00,West,271,2.0,4.0,20,0.00,,,0.00,68.000000,,2013-01-10 01:12:00,
2013-01-09 18:22:00,43.0,5.0,-100.00,West,271,2.0,4.0,20,0.00,,,0.00,68.000000,,2013-01-10 01:22:00,
2013-01-09 18:32:00,43.0,5.0,-100.00,West,271,2.0,4.0,20,0.00,,,0.00,68.000000,,2013-01-10 01:32:00,
2013-01-09 18:53:00,40.0,0.0,-100.00,West,264,2.0,4.0,18,0.00,,,0.00,1.000000,,2013-01-10 01:53:00,
2013-01-09 19:02:00,40.0,0.0,-100.00,West,264,2.0,4.0,18,0.00,,,0.00,1.000000,,2013-01-10 02:02:00,
2013-01-09 19:12:00,40.0,0.0,-100.00,West,264,2.0,4.0,18,0.00,,,0.00,1.000000,,2013-01-10 02:12:00,
2013-01-09 19:22:00,40.0,0.0,-100.00,West,264,2.0,4.0,18,0.00,,,0.00,1.000000,,2013-01-10 02:22:00,
2013-01-09 19:32:00,40.0,0.0,-100.00,West,264,2.0,4.0,18,0.00,,,0.00,1.000000,,2013-01-10 02:32:00,
2013-01-09 20:02:00,40.0,-4.0,-100.00,WSW,255,1.0,3.0,15,0.00,,,0.00,0.000000,,2013-01-10 03:02:00,
2013-01-09 20:12:00,40.0,-4.0,-100.00,WSW,255,1.0,3.0,15,0.00,,,0.00,0.000000,,2013-01-10 03:12:00,
2013-01-09 20:22:00,40.0,-4.0,-100.00,WSW,255,1.0,3.0,15,0.00,,,0.00,0.000000,,2013-01-10 03:22:00,
2013-01-09 20:32:00,40.0,-4.0,-100.00,WSW,255,1.0,3.0,15,0.00,,,0.00,0.000000,,2013-01-10 03:32:00,
2013-01-09 20:52:00,42.0,-9.0,-100.00,East,94,2.0,3.0,11,0.00,,,0.00,0.000000,,2013-01-10 03:52:00,
2013-01-09 21:02:00,42.0,-9.0,-100.00,East,94,2.0,3.0,11,0.00,,,0.00,0.000000,,2013-01-10 04:02:00,
2013-01-09 21:32:00,42.0,-9.0,-100.00,East,94,2.0,3.0,11,0.00,,,0.00,0.000000,,2013-01-10 04:32:00,
2013-01-09 22:03:00,41.0,-4.0,-100.00,ENE,61,1.0,4.0,14,0.00,,,0.00,0.000000,,2013-01-10 05:03:00,
2013-01-09 22:12:00,41.0,-4.0,-100.00,ENE,61,1.0,4.0,14,0.00,,,0.00,0.000000,,2013-01-10 05:12:00,
2013-01-09 22:22:00,41.0,-4.0,-100.00,ENE,61,1.0,4.0,14,0.00,,,0.00,0.000000,,2013-01-10 05:22:00,
2013-01-09 22:32:00,41.0,-4.0,-100.00,ENE,61,1.0,4.0,14,0.00,,,0.00,0.000000,,2013-01-10 05:32:00,
2013-01-09 23:02:00,41.0,-4.0,-100.00,ENE,76,2.0,3.0,14,0.00,,,0.00,0.000000,,2013-01-10 06:02:00,
2013-01-09 23:11:00,41.0,-4.0,-100.00,ENE,76,2.0,3.0,14,0.00,,,0.00,0.000000,,2013-01-10 06:11:00,
2013-01-09 23:22:00,41.0,-4.0,-100.00,ENE,76,2.0,3.0,14,0.00,,,0.00,0.000000,,2013-01-10 06:22:00,
2013-01-09 23:32:00,41.0,-4.0,-100.00,ENE,76,2.0,3.0,14,0.00,,,0.00,0.000000,,2013-01-10 06:32:00,